WetterOnline ( http://www.wetteronline.de )

Wetter aktuell Bonn

Aktuelles Wetter: Roleber (162m)

6-stündlich | Neueste Meldungen
Ortszeit Temperatur Wetter
Fr, 20.04. 14:00 26.6° C wolkig
Fr, 20.04. 8:00 12.7° C wolkig
Fr, 20.04. 2:00 15.5° C wolkig
Do, 19.04. 20:00 23.4° C leicht bewölkt
Do, 19.04. 14:00 25.8° C wolkenlos
Do, 19.04. 8:00 15.1° C wolkenlos
Do, 19.04. 2:00 14.5° C fast wolkenlos
Mi, 18.04. 20:00 21.1° C wolkenlos
Ortszeit Temperatur Wetter
Fr, 20.04. 19:30 25.5° C wolkig
Fr, 20.04. 19:20 25.5° C wolkig
Fr, 20.04. 19:10 25.6° C wolkig
Fr, 20.04. 19:00 26.0° C leicht bewölkt
Fr, 20.04. 18:50 26.0° C wolkig
Fr, 20.04. 18:40 26.3° C wolkig
Fr, 20.04. 18:30 26.4° C wolkig
Fr, 20.04. 18:00 26.7° C wolkig
Fr, 20.04. 16:00 26.9° C -
Ortszeit Relative Feuchte Sichtweite
Fr, 20.04. 14:00 37% 35 km
Fr, 20.04. 8:00 69% 40 km
Fr, 20.04. 2:00 55% 65 km
Do, 19.04. 20:00 40% 50 km
Do, 19.04. 14:00 34% 40 km
Do, 19.04. 8:00 63% 19 km
Do, 19.04. 2:00 65% 40 km
Mi, 18.04. 20:00 43% 65 km
Ortszeit Relative Feuchte Sichtweite
Fr, 20.04. 19:30 36% 40 km
Fr, 20.04. 19:20 36% -
Fr, 20.04. 19:10 35% -
Fr, 20.04. 19:00 33% 40 km
Fr, 20.04. 18:50 33% -
Fr, 20.04. 18:40 33% -
Fr, 20.04. 18:30 28% 35 km
Fr, 20.04. 18:00 33% 50 km
Fr, 20.04. 16:00 29% 40 km
Ortszeit Niederschlagsmenge Niederschlagsart
Fr, 20.04. 14:00 0.0 l/m2 in 6 Std. -
Fr, 20.04. 8:00 0.0 l/m2 in 12 Std. -
Fr, 20.04. 2:00 0.0 l/m2 in 6 Std. -
Do, 19.04. 20:00 0.0 l/m2 in 12 Std. -
Do, 19.04. 14:00 0.0 l/m2 in 6 Std. -
Do, 19.04. 8:00 0.0 l/m2 in 12 Std. -
Do, 19.04. 2:00 0.0 l/m2 in 6 Std. -
Mi, 18.04. 20:00 0.0 l/m2 in 12 Std. -
Ortszeit Niederschlagsmenge Niederschlagsart
Fr, 20.04. 19:30 0.0 l/m2 in 1 Std. -
Fr, 20.04. 19:20 keine Meldung -
Fr, 20.04. 19:10 keine Meldung -
Fr, 20.04. 19:00 0.0 l/m2 in 1 Std. -
Fr, 20.04. 18:50 keine Meldung -
Fr, 20.04. 18:40 keine Meldung -
Fr, 20.04. 18:30 0.0 l/m2 in 1 Std. -
Fr, 20.04. 18:00 0.0 l/m2 in 1 Std. -
Fr, 20.04. 16:00 keine Meldung -
Ortszeit Stärke Spitze Richtung
km/h Bft. km/h Grad Sektor
Fr, 20.04. 14:00 6 1 17 130° SO
Fr, 20.04. 8:00 7 2 11 90° O
Fr, 20.04. 2:00 7 2 18 100° O
Do, 19.04. 20:00 7 2 28 110° O
Do, 19.04. 14:00 14 3 32 120° SO
Do, 19.04. 8:00 17 3 24 120° SO
Do, 19.04. 2:00 9 2 19 110° O
Mi, 18.04. 20:00 11 2 24 140° SO
Ortszeit Stärke Spitze Richtung
km/h Bft. km/h Grad Sektor
Fr, 20.04. 19:30 7 2 14 310° NW
Fr, 20.04. 19:20 7 2 - 310° NW
Fr, 20.04. 19:10 7 2 - 310° NW
Fr, 20.04. 19:00 9 2 17 340° N
Fr, 20.04. 18:50 9 2 - 340° N
Fr, 20.04. 18:40 7 2 - 300° NW
Fr, 20.04. 18:30 9 2 15 340° N
Fr, 20.04. 18:00 7 2 18 340° N
Fr, 20.04. 16:00 7 2 18 310° NW
Ortszeit Untergrenze Bedeckung Gattung
total tief tief mittel hoch
Fr, 20.04. 14:00 - 8/8 - - - -
Fr, 20.04. 8:00 12000 m 8/8 0/8 - - -
Fr, 20.04. 2:00 12000 m 8/8 0/8 - - -
Do, 19.04. 20:00 10500 m 8/8 0/8 - - -
Do, 19.04. 14:00 10500 m 0/8 0/8 - - -
Do, 19.04. 8:00 - 0/8 0/8 - - -
Do, 19.04. 2:00 3000 m 1/8 1/8 - - -
Mi, 18.04. 20:00 - 0/8 0/8 - - -
Ortszeit Bedeckungsgrad in Achtel und Wolkenuntergrenze
Fr, 20.04. 19:30 1(3600m) 7(9000m)
Fr, 20.04. 19:20 1(3600m) 7(9000m)
Fr, 20.04. 19:10 1(3600m) 7(9000m)
Fr, 20.04. 19:00 7(9000m) 7(9000m)
Fr, 20.04. 18:50 7(9000m)
Fr, 20.04. 18:40 7(9000m)
Fr, 20.04. 18:30 7(9000m) 7(9000m)
Fr, 20.04. 18:00 2(3300m) 7(9000m)
Fr, 20.04. 16:00 -
Ortszeit Luftdruck NN (hPa) Tendenz (hPa in 3 Std.)
Fr, 20.04. 14:00 1023 - 0,9
Fr, 20.04. 8:00 1024 - 0,2
Fr, 20.04. 2:00 1025 - 0,5
Do, 19.04. 20:00 1024 - 0,8
Do, 19.04. 14:00 1027 - 1,1
Do, 19.04. 8:00 1028 - 0,3
Do, 19.04. 2:00 1029 0,0
Mi, 18.04. 20:00 1029 - 0,8
Ortszeit Luftdruck NN (hPa) Tendenz (hPa in 3 Std.)
Fr, 20.04. 19:30 1020 - 1,1
Fr, 20.04. 19:20 1020 keine Meldung
Fr, 20.04. 19:10 1020 keine Meldung
Fr, 20.04. 19:00 1020 - 1,3
Fr, 20.04. 18:50 1020 keine Meldung
Fr, 20.04. 18:40 1020 keine Meldung
Fr, 20.04. 18:30 1021 - 1,3
Fr, 20.04. 18:00 1021 - 1,4
Fr, 20.04. 16:00 1022 - 1,5
Ortszeit Schneehöhe (cm)
Fr, 20.04. 14:00 0
Fr, 20.04. 8:00 0
Fr, 20.04. 2:00 0
Do, 19.04. 20:00 0
Do, 19.04. 14:00 0
Do, 19.04. 8:00 0
Do, 19.04. 2:00 0
Mi, 18.04. 20:00 0
Ortszeit Schneehöhe (cm)
Fr, 20.04. 19:30 0
Fr, 20.04. 19:20 0
Fr, 20.04. 19:10 0
Fr, 20.04. 19:00 0
Fr, 20.04. 18:50 0
Fr, 20.04. 18:40 0
Fr, 20.04. 18:30 0
Fr, 20.04. 18:00 0
Fr, 20.04. 16:00 -
Link zu dieser Seite / Seite empfehlen

Das Wetter in ...